Time;durP1;ratioP1;P1;durP2;ratioP2;P2;SDS_P1;SDS_P2;PMS_P1;PMS_P2;Temp;Humidity;BMP_temperature;BMP_pressure;BME280_temperature;BME280_humidity;BME280_pressure;Samples;Min_cycle;Max_cycle;Signal;HPM_P1;HPM_P2
2022/03/10 00:00:27;;;;;;;4.38;3.98;;;;;;;-3.91;63.57;101186.88;466864;112;922646;-68
2022/03/10 00:01:30;;;;;;;4.53;4.16;;;;;;;-3.95;63.53;101190.73;464623;112;922616;-69
2022/03/10 00:02:33;;;;;;;4.58;4.18;;;;;;;-3.99;63.61;101189.25;465692;112;923028;-68
2022/03/10 00:03:37;;;;;;;4.17;3.71;;;;;;;-4.02;63.46;101190.30;465372;112;930614;-69
2022/03/10 00:04:40;;;;;;;4.11;3.69;;;;;;;-4.05;63.59;101187.01;465774;112;930549;-69
2022/03/10 00:05:44;;;;;;;5.11;4.67;;;;;;;-4.07;63.70;101183.59;465126;112;922594;-68
2022/03/10 00:06:47;;;;;;;4.27;3.87;;;;;;;-4.08;63.36;101187.23;464740;112;930478;-68
2022/03/10 00:07:50;;;;;;;3.78;3.48;;;;;;;-4.10;62.99;101189.14;466473;112;930512;-70
2022/03/10 00:08:54;;;;;;;4.46;4.08;;;;;;;-4.15;63.14;101188.61;465503;112;922455;-69
2022/03/10 00:09:57;;;;;;;4.44;3.64;;;;;;;-4.18;63.21;101187.00;465824;112;922468;-67
2022/03/10 00:11:01;;;;;;;4.36;3.87;;;;;;;-4.17;63.15;101186.05;464808;112;930470;-69
2022/03/10 00:12:05;;;;;;;4.44;3.89;;;;;;;-4.17;63.24;101191.38;466450;112;923045;-68
2022/03/10 00:13:08;;;;;;;4.84;3.56;;;;;;;-4.16;63.10;101187.75;464344;112;922889;-69
2022/03/10 00:14:12;;;;;;;4.20;3.79;;;;;;;-4.17;62.97;101191.38;465934;112;922731;-69
2022/03/10 00:15:21;;;;;;;4.10;3.72;;;;;;;-4.18;62.76;101187.00;466287;112;923380;-69
2022/03/10 00:16:25;;;;;;;3.84;3.31;;;;;;;-4.22;62.61;101188.17;464281;112;922529;-69
2022/03/10 00:17:28;;;;;;;3.84;3.53;;;;;;;-4.25;62.79;101183.08;464452;112;923068;-69
2022/03/10 00:18:32;;;;;;;4.46;3.51;;;;;;;-4.26;62.96;101186.69;460738;113;922569;-71
2022/03/10 00:19:35;;;;;;;3.92;3.62;;;;;;;-4.26;62.96;101178.70;461122;112;930421;-68
2022/03/10 00:20:38;;;;;;;3.92;3.58;;;;;;;-4.23;62.88;101183.80;460560;113;922923;-69
2022/03/10 00:21:42;;;;;;;4.73;3.96;;;;;;;-4.25;62.71;101188.40;463473;113;922954;-69
2022/03/10 00:22:48;;;;;;;3.85;3.54;;;;;;;-4.27;62.63;101182.31;464145;113;922541;-68
2022/03/10 00:23:51;;;;;;;4.54;3.80;;;;;;;-4.31;62.48;101188.81;462020;113;922503;-68
2022/03/10 00:24:54;;;;;;;3.58;3.28;;;;;;;-4.35;62.67;101185.49;462493;113;922481;-68
2022/03/10 00:25:58;;;;;;;3.72;3.34;;;;;;;-4.36;62.73;101186.48;459727;113;922989;-69
2022/03/10 00:27:01;;;;;;;3.32;3.01;;;;;;;-4.36;62.96;101177.63;463347;113;923003;-69
2022/03/10 00:28:05;;;;;;;3.67;3.08;;;;;;;-4.34;62.85;101186.34;462171;113;930634;-69
2022/03/10 00:29:08;;;;;;;3.74;3.40;;;;;;;-4.33;62.84;101185.39;464611;113;922595;-70
2022/03/10 00:30:12;;;;;;;3.89;3.35;;;;;;;-4.32;62.91;101181.78;462465;113;923081;-69
2022/03/10 00:31:15;;;;;;;3.74;3.44;;;;;;;-4.27;62.77;101182.31;460796;113;922950;-69
2022/03/10 00:32:19;;;;;;;3.87;3.38;;;;;;;-4.27;62.77;101182.31;461278;113;930570;-69
2022/03/10 00:33:22;;;;;;;3.49;3.19;;;;;;;-4.27;62.66;101184.98;460940;113;922708;-69
2022/03/10 00:34:26;;;;;;;3.84;3.47;;;;;;;-4.26;62.72;101181.36;460070;113;930559;-67
2022/03/10 00:35:29;;;;;;;4.71;4.27;;;;;;;-4.25;62.66;101180.41;464485;113;922775;-68
2022/03/10 00:36:33;;;;;;;4.68;3.39;;;;;;;-4.25;62.45;101183.94;462864;113;922587;-68
2022/03/10 00:37:37;;;;;;;3.59;3.22;;;;;;;-4.26;62.47;101190.20;464394;113;922896;-68
2022/03/10 00:38:41;;;;;;;3.58;2.92;;;;;;;-4.26;62.46;101184.88;463076;113;922617;-69
2022/03/10 00:39:44;;;;;;;3.64;3.31;;;;;;;-4.27;62.35;101187.64;460528;113;922587;-69
2022/03/10 00:40:48;;;;;;;4.13;3.74;;;;;;;-4.29;62.14;101187.73;460080;113;923295;-69
2022/03/10 00:41:51;;;;;;;3.47;2.96;;;;;;;-4.32;62.09;101184.45;462595;113;922903;-69
2022/03/10 00:42:54;;;;;;;4.49;3.77;;;;;;;-4.38;61.93;101187.52;462292;113;922620;-69
2022/03/10 00:43:57;;;;;;;4.01;3.64;;;;;;;-4.38;61.93;101187.52;460578;113;930839;-69
2022/03/10 00:45:01;;;;;;;3.92;3.44;;;;;;;-4.39;62.08;101188.48;460161;113;922588;-67
2022/03/10 00:46:04;;;;;;;3.93;3.47;;;;;;;-4.39;62.08;101185.81;463353;113;922605;-71
2022/03/10 00:47:07;;;;;;;3.84;3.44;;;;;;;-4.40;62.10;101189.42;464214;113;922698;-69
2022/03/10 00:48:11;;;;;;;3.67;2.88;;;;;;;-4.41;62.24;101180.59;460240;113;922878;-68
2022/03/10 00:49:14;;;;;;;4.32;3.34;;;;;;;-4.39;62.23;101186.67;463880;113;922598;-69
2022/03/10 00:50:20;;;;;;;3.54;3.23;;;;;;;-4.39;62.25;101185.81;464364;113;923018;-69
2022/03/10 00:51:24;;;;;;;4.14;3.41;;;;;;;-4.39;62.12;101184.00;463878;113;922601;-69
2022/03/10 00:52:27;;;;;;;3.49;3.12;;;;;;;-4.38;62.05;101190.19;463362;113;922557;-68
2022/03/10 00:53:30;;;;;;;3.96;3.56;;;;;;;-4.39;61.98;101196.45;463502;113;923472;-68
2022/03/10 00:54:34;;;;;;;7.03;3.18;;;;;;;-4.41;61.93;101193.07;464099;113;931008;-70
2022/03/10 00:55:37;;;;;;;3.54;3.17;;;;;;;-4.44;61.92;101190.60;461580;113;922643;-71
2022/03/10 00:56:43;;;;;;;3.80;3.23;;;;;;;-4.47;61.91;101188.16;464010;113;922582;-70
2022/03/10 00:57:47;;;;;;;3.45;2.99;;;;;;;-4.50;61.87;101180.37;463040;113;922880;-69
2022/03/10 00:58:51;;;;;;;5.03;3.46;;;;;;;-4.52;61.97;101187.62;463597;113;922487;-69
2022/03/10 00:59:55;;;;;;;3.46;3.04;;;;;;;-4.53;62.10;101184.11;460498;113;923004;-69
2022/03/10 01:00:58;;;;;;;3.51;3.14;;;;;;;-4.50;62.19;101194.53;462558;113;930582;-68
2022/03/10 01:02:02;;;;;;;3.88;3.49;;;;;;;-4.49;62.31;101185.59;459109;113;930542;-69
2022/03/10 01:03:06;;;;;;;3.05;2.65;;;;;;;-4.47;62.26;101194.34;460568;113;922535;-68
2022/03/10 01:04:09;;;;;;;3.85;3.34;;;;;;;-4.45;62.30;101187.08;463571;113;922636;-69
2022/03/10 01:05:13;;;;;;;3.35;2.81;;;;;;;-4.41;62.25;101187.75;459425;113;922592;-70
2022/03/10 01:06:17;;;;;;;3.55;3.20;;;;;;;-4.38;62.33;101187.52;461077;113;922573;-69
2022/03/10 01:07:20;;;;;;;5.03;3.54;;;;;;;-4.36;62.37;101180.30;461825;113;922765;-69
2022/03/10 01:08:24;;;;;;;4.05;3.46;;;;;;;-4.36;62.43;101191.80;463242;113;922632;-69
2022/03/10 01:09:27;;;;;;;3.83;3.44;;;;;;;-4.37;62.93;101183.91;461820;113;922523;-69
2022/03/10 01:10:31;;;;;;;3.88;3.01;;;;;;;-4.41;63.51;101185.91;462073;113;922504;-70
2022/03/10 01:11:34;;;;;;;3.65;3.35;;;;;;;-4.42;64.08;101188.70;463616;113;922509;-69
2022/03/10 01:12:41;;;;;;;3.32;3.02;;;;;;;-4.40;64.39;101184.95;461412;113;923156;-67
2022/03/10 01:13:43;;;;;;;3.65;3.21;;;;;;;-4.37;64.64;101190.09;461158;113;922896;-69
2022/03/10 01:14:48;;;;;;;3.74;3.18;;;;;;;-4.34;64.63;101186.34;463092;113;922528;-68
2022/03/10 01:15:52;;;;;;;4.39;3.29;;;;;;;-4.33;64.25;101185.39;461947;113;923052;-68
2022/03/10 01:16:56;;;;;;;4.05;3.12;;;;;;;-4.36;67.23;101183.81;461012;113;922579;-68
2022/03/10 01:18:00;;;;;;;4.69;3.23;;;;;;;-4.39;70.01;101188.48;463534;113;922576;-67
2022/03/10 01:19:03;;;;;;;3.62;3.21;;;;;;;-4.44;70.86;101182.61;462813;113;923200;-68
2022/03/10 01:20:08;;;;;;;3.41;3.08;;;;;;;-4.47;71.83;101182.84;460210;113;922554;-68
2022/03/10 01:21:11;;;;;;;3.25;2.95;;;;;;;-4.49;72.00;101187.40;462427;113;922538;-69
2022/03/10 01:22:14;;;;;;;3.12;2.83;;;;;;;-4.52;72.59;101184.96;461338;113;922422;-68
2022/03/10 01:23:18;;;;;;;3.48;2.84;;;;;;;-4.56;72.61;101178.97;460383;113;922514;-67
2022/03/10 01:24:23;;;;;;;4.29;2.98;;;;;;;-4.59;73.31;101179.20;462693;113;930474;-68
2022/03/10 01:25:27;;;;;;;3.34;3.04;;;;;;;-4.63;73.94;101183.85;461664;113;922626;-69
2022/03/10 01:26:30;;;;;;;3.76;2.74;;;;;;;-4.63;74.45;101183.00;461602;113;922596;-70
2022/03/10 01:27:35;;;;;;;3.52;3.16;;;;;;;-4.62;74.95;101180.23;461136;113;930535;-68
2022/03/10 01:28:38;;;;;;;3.08;2.73;;;;;;;-4.60;74.98;101179.29;462013;113;922697;-68
2022/03/10 01:29:41;;;;;;;4.11;3.01;;;;;;;-4.59;74.81;101181.00;462974;113;930528;-67
2022/03/10 01:30:45;;;;;;;6.37;3.05;;;;;;;-4.60;74.61;101181.95;462119;112;930557;-70
2022/03/10 01:31:48;;;;;;;2.85;2.59;;;;;;;-4.61;74.90;101181.09;463030;113;930537;-70
2022/03/10 01:32:51;;;;;;;2.80;2.39;;;;;;;-4.63;75.43;101185.66;461403;113;930313;-70
2022/03/10 01:33:55;;;;;;;2.91;2.63;;;;;;;-4.63;75.80;101181.19;463996;113;922493;-68
2022/03/10 01:34:58;;;;;;;3.07;2.80;;;;;;;-4.63;75.98;101186.52;462890;113;922677;-68
2022/03/10 01:36:02;;;;;;;3.48;2.72;;;;;;;-4.62;75.97;101188.22;464129;113;922565;-70
2022/03/10 01:37:05;;;;;;;2.87;2.48;;;;;;;-4.61;76.32;101183.75;463965;113;930584;-70
2022/03/10 01:38:10;;;;;;;2.74;2.54;;;;;;;-4.62;76.50;101188.22;465190;113;930607;-69
2022/03/10 01:39:13;;;;;;;3.32;3.02;;;;;;;-4.60;76.79;101187.27;464407;113;922589;-70
2022/03/10 01:40:19;;;;;;;3.38;2.99;;;;;;;-4.61;76.52;101186.41;460807;113;922545;-68
2022/03/10 01:41:22;;;;;;;3.14;2.81;;;;;;;-4.62;76.79;101193.55;459940;113;922800;-70
2022/03/10 01:42:26;;;;;;;3.05;2.49;;;;;;;-4.65;76.69;101188.44;461712;113;922543;-68
2022/03/10 01:43:29;;;;;;;3.73;2.66;;;;;;;-4.66;77.08;101197.38;461285;113;922645;-69
2022/03/10 01:44:33;;;;;;;3.06;2.80;;;;;;;-4.68;76.38;101190.44;462431;113;922552;-68
2022/03/10 01:45:37;;;;;;;3.21;2.60;;;;;;;-4.72;76.90;101197.78;464416;113;925274;-68
2022/03/10 01:46:40;;;;;;;3.14;2.91;;;;;;;-4.74;77.42;101185.55;464319;113;925285;-69
2022/03/10 01:47:44;;;;;;;2.83;2.58;;;;;;;-4.74;77.63;101194.36;460865;113;922999;-69
2022/03/10 01:48:47;;;;;;;3.58;2.82;;;;;;;-4.73;77.92;101200.53;462641;113;924836;-70
2022/03/10 01:49:51;;;;;;;3.22;2.49;;;;;;;-4.73;77.71;101197.88;460845;113;922587;-67
2022/03/10 01:50:54;;;;;;;3.49;2.63;;;;;;;-4.73;78.01;101206.71;463858;113;922691;-71
2022/03/10 01:51:59;;;;;;;3.56;3.24;;;;;;;-4.74;77.97;101199.68;459701;113;922623;-68
2022/03/10 01:53:03;;;;;;;4.25;3.11;;;;;;;-4.74;78.30;101205.00;462074;113;922701;-68
2022/03/10 01:54:07;;;;;;;3.30;2.94;;;;;;;-4.72;78.47;101194.27;463267;113;922899;-68
2022/03/10 01:55:11;;;;;;;3.44;3.14;;;;;;;-4.71;78.73;101206.62;462494;113;922934;-68
2022/03/10 01:56:17;;;;;;;2.64;2.42;;;;;;;-4.71;78.60;101193.31;458691;113;930565;-69
2022/03/10 01:57:21;;;;;;;6.32;3.26;;;;;;;-4.71;78.42;101201.30;463688;113;922697;-68
2022/03/10 01:58:24;;;;;;;6.04;2.74;;;;;;;-4.75;78.64;101198.00;460466;113;922694;-69
2022/03/10 01:59:29;;;;;;;7.64;3.24;;;;;;;-4.79;79.32;101211.58;463930;113;922583;-68
2022/03/10 02:00:33;;;;;;;3.54;3.16;;;;;;;-4.82;79.35;101199.35;462528;113;922548;-69
2022/03/10 02:01:38;;;;;;;3.29;2.89;;;;;;;-4.86;80.06;101203.18;459525;113;922902;-69
2022/03/10 02:02:42;;;;;;;4.26;3.39;;;;;;;-4.88;80.43;101210.39;461281;113;922730;-69
2022/03/10 02:03:46;;;;;;;4.38;2.85;;;;;;;-4.88;80.69;101210.39;462800;113;922858;-69
2022/03/10 02:04:49;;;;;;;5.12;3.14;;;;;;;-4.90;80.69;101211.43;463572;113;930521;-68
2022/03/10 02:05:54;;;;;;;3.48;2.71;;;;;;;-4.92;80.64;101208.04;461892;113;922741;-69
2022/03/10 02:06:58;;;;;;;4.73;3.02;;;;;;;-4.96;80.62;101204.71;460638;113;923137;-69
2022/03/10 02:10:47;;;;;;;3.07;2.77;;;;;;;-5.02;81.25;101213.12;461281;113;923012;-68
2022/03/10 02:11:51;;;;;;;3.12;2.75;;;;;;;-5.04;81.21;101209.69;463627;113;922397;-69
2022/03/10 02:12:56;;;;;;;3.23;2.76;;;;;;;-5.06;81.42;101212.44;463363;113;923090;-68
2022/03/10 02:17:19;;;;;;;3.46;3.13;;;;;;;-5.07;81.49;101213.39;463206;113;922565;-70
2022/03/10 02:18:03;;;;;;;3.91;3.01;;;;;;;-5.11;81.79;101214.55;464990;113;922832;-69
2022/03/10 02:19:06;;;;;;;2.85;2.58;;;;;;;-5.11;81.91;101208.38;464154;112;923052;-69
2022/03/10 02:20:11;;;;;;;3.68;3.14;;;;;;;-5.10;81.97;101212.75;464389;112;922637;-68
2022/03/10 02:21:14;;;;;;;3.44;2.98;;;;;;;-5.09;82.11;101215.31;465318;112;922532;-68
2022/03/10 02:22:20;;;;;;;3.51;2.74;;;;;;;-5.06;82.23;101216.91;466447;112;922840;-68
2022/03/10 02:23:23;;;;;;;3.82;3.21;;;;;;;-5.06;82.20;101222.22;465402;112;923040;-68
2022/03/10 02:24:27;;;;;;;3.23;2.91;;;;;;;-5.08;81.89;101219.69;467065;112;923034;-68
2022/03/10 02:25:30;;;;;;;3.23;2.90;;;;;;;-5.10;81.99;101226.89;466021;112;922514;-68
2022/03/10 02:26:33;;;;;;;3.85;2.84;;;;;;;-5.13;82.01;101224.42;465086;111;922622;-69
2022/03/10 02:27:36;;;;;;;3.70;2.63;;;;;;;-5.13;82.15;101228.91;465243;112;922470;-69
2022/03/10 02:28:41;;;;;;;3.33;3.03;;;;;;;-5.12;82.26;101220.81;466135;112;922607;-70
2022/03/10 02:29:44;;;;;;;3.21;2.91;;;;;;;-5.08;82.47;101227.66;465711;112;922544;-68
2022/03/10 02:30:48;;;;;;;3.94;3.25;;;;;;;-5.05;82.43;101222.12;466766;112;922985;-69
2022/03/10 02:31:53;;;;;;;3.02;2.69;;;;;;;-5.03;82.45;101215.87;467111;112;922896;-68
2022/03/10 02:32:57;;;;;;;4.33;3.17;;;;;;;-4.99;82.43;101230.66;467226;112;922503;-69
2022/03/10 02:34:01;;;;;;;4.46;2.61;;;;;;;-5.00;82.05;101224.48;464669;112;922635;-68
2022/03/10 02:35:04;;;;;;;3.99;2.97;;;;;;;-5.05;81.85;101218.61;465497;112;930511;-68
2022/03/10 02:36:08;;;;;;;3.74;3.20;;;;;;;-5.10;81.98;101220.72;466480;112;922950;-68
2022/03/10 02:37:12;;;;;;;2.98;2.67;;;;;;;-5.13;82.06;101226.25;465640;112;922763;-67
2022/03/10 02:38:18;;;;;;;3.08;2.75;;;;;;;-5.12;82.11;101225.27;466531;112;922904;-68
2022/03/10 02:39:21;;;;;;;3.29;3.00;;;;;;;-5.12;82.27;101225.27;466318;112;922739;-70
2022/03/10 02:40:26;;;;;;;3.00;2.77;;;;;;;-5.11;82.38;101216.35;465988;112;922655;-68
2022/03/10 02:41:30;;;;;;;3.18;2.65;;;;;;;-5.10;82.42;101224.23;465150;112;922620;-69
2022/03/10 02:42:34;;;;;;;2.94;2.68;;;;;;;-5.08;82.31;101226.81;465643;112;922515;-69
2022/03/10 02:43:37;;;;;;;3.62;2.98;;;;;;;-5.09;82.19;101227.75;465506;112;922489;-67
2022/03/10 02:44:46;;;;;;;3.48;3.17;;;;;;;-5.12;82.26;101225.27;465296;112;922906;-67
2022/03/10 02:45:51;;;;;;;3.71;2.94;;;;;;;-5.13;82.15;101228.91;464362;112;922857;-68
2022/03/10 02:46:54;;;;;;;3.40;3.12;;;;;;;-5.16;82.03;101226.44;464711;112;922484;-68
2022/03/10 02:47:58;;;;;;;2.96;2.68;;;;;;;-5.18;82.11;101229.18;465635;112;930977;-67
2022/03/10 02:49:01;;;;;;;2.79;2.58;;;;;;;-5.17;82.29;101233.55;466553;112;922696;-69
2022/03/10 02:50:07;;;;;;;2.83;2.52;;;;;;;-5.16;82.38;101227.28;466311;112;922863;-69
2022/03/10 02:51:10;;;;;;;3.68;2.77;;;;;;;-5.13;82.44;101235.05;465380;112;930238;-69
2022/03/10 02:52:13;;;;;;;3.07;2.77;;;;;;;-5.09;82.60;101225.09;465055;112;922933;-67
2022/03/10 02:53:18;;;;;;;4.41;2.95;;;;;;;-5.05;82.64;101218.61;465809;112;930603;-68
2022/03/10 02:54:22;;;;;;;2.89;2.59;;;;;;;-5.02;82.65;101228.22;465865;111;923086;-68
2022/03/10 02:55:27;;;;;;;3.05;2.82;;;;;;;-5.01;82.53;101230.75;466251;112;923301;-69
2022/03/10 02:56:30;;;;;;;3.74;3.29;;;;;;;-5.01;82.40;101224.58;464699;112;922519;-70
2022/03/10 02:57:34;;;;;;;4.79;2.86;;;;;;;-5.02;82.61;101223.75;465575;112;930496;-68
2022/03/10 02:58:37;;;;;;;3.38;2.90;;;;;;;-5.02;82.66;101229.07;465149;112;922504;-68
2022/03/10 02:59:42;;;;;;;3.84;3.16;;;;;;;-4.99;82.76;101228.86;464865;112;922657;-67
2022/03/10 03:00:45;;;;;;;4.65;2.96;;;;;;;-4.97;82.66;101223.45;465169;112;922848;-71
2022/03/10 03:01:49;;;;;;;3.74;3.21;;;;;;;-4.98;82.49;101235.89;465569;112;922519;-67
2022/03/10 03:02:53;;;;;;;3.66;3.15;;;;;;;-5.02;82.61;101228.22;464851;112;922932;-67
2022/03/10 03:03:56;;;;;;;3.31;3.01;;;;;;;-5.02;82.72;101242.36;465704;112;922531;-69
2022/03/10 03:05:00;;;;;;;3.89;3.39;;;;;;;-5.06;82.37;101231.05;464578;112;930521;-68
2022/03/10 03:06:03;;;;;;;2.99;2.71;;;;;;;-5.08;82.42;101235.64;464314;112;930595;-70
2022/03/10 03:07:07;;;;;;;3.76;3.05;;;;;;;-5.10;82.43;101234.02;466663;112;930296;-68
2022/03/10 03:08:11;;;;;;;3.79;2.74;;;;;;;-5.13;82.31;101239.55;465817;112;922644;-69
2022/03/10 03:09:14;;;;;;;3.51;3.02;;;;;;;-5.18;82.26;101234.50;464728;112;922584;-68
2022/03/10 03:10:19;;;;;;;3.87;3.32;;;;;;;-5.22;82.22;101238.31;465937;112;922793;-68
2022/03/10 03:11:22;;;;;;;3.70;3.08;;;;;;;-5.27;82.05;101237.76;465565;112;922972;-68
2022/03/10 03:12:26;;;;;;;3.83;3.09;;;;;;;-5.30;82.21;101234.45;467713;112;922589;-67
2022/03/10 03:13:29;;;;;;;3.52;2.98;;;;;;;-5.31;82.35;101232.73;464971;112;922545;-68
2022/03/10 03:14:32;;;;;;;3.64;2.98;;;;;;;-5.32;82.39;101231.88;466545;112;931172;-69
2022/03/10 03:15:36;;;;;;;3.15;2.44;;;;;;;-5.33;82.51;101237.28;465229;112;922573;-67
2022/03/10 03:16:40;;;;;;;4.47;3.29;;;;;;;-5.35;82.49;101237.41;464418;112;923058;-70
2022/03/10 03:17:43;;;;;;;3.65;2.78;;;;;;;-5.34;82.62;101243.55;465483;112;930563;-70
2022/03/10 03:18:46;;;;;;;3.52;2.69;;;;;;;-5.33;82.74;101240.80;464399;112;922571;-70
2022/03/10 03:19:50;;;;;;;3.37;2.92;;;;;;;-5.30;82.89;101242.42;460319;113;923226;-68
2022/03/10 03:20:53;;;;;;;2.89;2.47;;;;;;;-5.27;82.94;101236.90;461255;114;922655;-67
2022/03/10 03:21:57;;;;;;;3.04;2.75;;;;;;;-5.26;82.97;101246.59;460920;114;930390;-69
2022/03/10 03:23:00;;;;;;;3.25;2.98;;;;;;;-5.25;82.93;101248.30;461281;114;922674;-70
2022/03/10 03:24:04;;;;;;;3.41;3.11;;;;;;;-5.26;82.90;101247.44;460687;114;930411;-68
2022/03/10 03:25:09;;;;;;;3.00;2.65;;;;;;;-5.26;82.97;101243.93;460530;114;922526;-68
2022/03/10 03:26:16;;;;;;;3.57;2.97;;;;;;;-5.25;83.02;101242.98;460317;114;922612;-67
2022/03/10 03:27:19;;;;;;;3.33;3.01;;;;;;;-5.21;83.21;101241.83;461168;114;922562;-67
2022/03/10 03:28:24;;;;;;;3.31;2.78;;;;;;;-5.18;83.17;101246.97;461263;114;930510;-68
2022/03/10 03:29:28;;;;;;;2.91;2.65;;;;;;;-5.17;83.02;101248.64;459706;114;922522;-68
2022/03/10 03:30:31;;;;;;;2.98;2.62;;;;;;;-5.18;82.99;101244.30;460292;114;930659;-69
2022/03/10 03:31:34;;;;;;;4.04;3.01;;;;;;;-5.19;82.83;101239.94;461562;114;930299;-68
2022/03/10 03:32:37;;;;;;;3.06;2.79;;;;;;;-5.21;82.66;101249.80;460912;114;922954;-68
2022/03/10 03:33:41;;;;;;;4.09;3.42;;;;;;;-5.27;82.09;101245.73;461929;114;922618;-68
2022/03/10 03:34:44;;;;;;;3.33;2.51;;;;;;;-5.33;82.28;101240.80;461199;114;922593;-69
2022/03/10 03:35:47;;;;;;;3.42;2.84;;;;;;;-5.38;82.29;101250.02;461431;114;922983;-68
2022/03/10 03:36:51;;;;;;;5.12;3.79;;;;;;;-5.44;82.12;101248.59;460756;114;922605;-68
2022/03/10 03:37:54;;;;;;;3.39;2.75;;;;;;;-5.49;82.23;101248.89;461434;114;922992;-67
2022/03/10 03:38:57;;;;;;;3.77;3.34;;;;;;;-5.51;82.28;101249.92;460777;114;930470;-69
2022/03/10 03:40:01;;;;;;;3.06;2.69;;;;;;;-5.54;81.90;101242.16;460840;114;922521;-68
2022/03/10 03:41:04;;;;;;;3.40;2.92;;;;;;;-5.59;81.97;101245.11;461605;114;930654;-69
2022/03/10 03:42:08;;;;;;;4.37;2.98;;;;;;;-5.62;82.12;101242.63;460795;114;922485;-68
2022/03/10 03:43:11;;;;;;;4.36;3.37;;;;;;;-5.64;82.02;101249.00;460820;114;922504;-67
2022/03/10 03:44:15;;;;;;;5.42;2.96;;;;;;;-5.64;82.02;101249.00;461408;114;930639;-68
2022/03/10 03:45:18;;;;;;;3.16;2.76;;;;;;;-5.67;81.84;101247.37;460399;114;923119;-68
2022/03/10 03:46:22;;;;;;;4.76;2.60;;;;;;;-5.71;81.52;101248.52;460468;114;930477;-68
2022/03/10 03:47:25;;;;;;;3.39;2.72;;;;;;;-5.76;81.77;101253.27;461253;114;930596;-70
2022/03/10 03:48:28;;;;;;;3.10;2.70;;;;;;;-5.79;81.91;101250.81;460669;114;922942;-68
2022/03/10 03:49:32;;;;;;;2.94;2.71;;;;;;;-5.81;81.93;101250.04;461325;114;922627;-69
2022/03/10 03:50:35;;;;;;;3.50;2.56;;;;;;;-5.82;81.95;101258.09;460622;114;923012;-67
2022/03/10 03:51:38;;;;;;;3.01;2.60;;;;;;;-5.83;82.03;101248.41;460364;114;922641;-71
2022/03/10 03:52:41;;;;;;;3.69;2.76;;;;;;;-5.81;82.17;101257.16;461170;114;922711;-69
2022/03/10 03:53:47;;;;;;;3.11;2.83;;;;;;;-5.78;82.33;101255.15;460375;114;922650;-70
2022/03/10 03:54:50;;;;;;;3.60;2.97;;;;;;;-5.73;82.45;101254.89;461007;114;923391;-68
2022/03/10 03:55:53;;;;;;;3.50;3.19;;;;;;;-5.68;82.51;101253.63;460178;114;930578;-68
2022/03/10 03:56:57;;;;;;;3.06;2.76;;;;;;;-5.65;82.50;101253.45;460683;114;922555;-68
2022/03/10 03:58:00;;;;;;;2.96;2.51;;;;;;;-5.60;82.57;101248.70;461697;114;922500;-68
2022/03/10 03:59:04;;;;;;;3.54;2.94;;;;;;;-5.58;82.54;101257.45;461639;114;930214;-68
2022/03/10 04:00:10;;;;;;;4.43;3.03;;;;;;;-5.56;82.37;101263.50;461514;114;922600;-68
2022/03/10 04:01:13;;;;;;;3.23;2.96;;;;;;;-5.55;82.32;101259.90;461071;114;922477;-69
2022/03/10 04:02:17;;;;;;;3.25;2.71;;;;;;;-5.57;82.27;101253.81;460750;114;922608;-70
2022/03/10 04:03:20;;;;;;;4.06;3.09;;;;;;;-5.57;82.23;101259.12;460784;114;930540;-68
2022/03/10 04:04:24;;;;;;;2.95;2.70;;;;;;;-5.57;82.28;101264.44;461081;114;930343;-69
2022/03/10 04:05:27;;;;;;;3.28;2.81;;;;;;;-5.55;82.25;101262.55;460115;114;930423;-67
2022/03/10 04:06:30;;;;;;;3.46;3.16;;;;;;;-5.54;82.41;101266.92;461309;114;922908;-68
2022/03/10 04:07:34;;;;;;;3.45;2.74;;;;;;;-5.53;82.39;101271.30;461859;114;930567;-68
2022/03/10 04:08:37;;;;;;;3.56;3.04;;;;;;;-5.52;82.28;101266.84;460480;114;922943;-67
2022/03/10 04:09:41;;;;;;;3.19;2.88;;;;;;;-5.55;82.25;101273.18;460815;114;922654;-70
2022/03/10 04:10:45;;;;;;;2.59;2.35;;;;;;;-5.58;81.83;101276.05;461565;114;930475;-68
2022/03/10 04:11:48;;;;;;;3.28;2.42;;;;;;;-5.63;81.89;101271.97;460943;114;922515;-68
2022/03/10 04:12:52;;;;;;;3.01;2.72;;;;;;;-5.67;82.07;101275.73;461633;114;922589;-69
2022/03/10 04:13:55;;;;;;;2.77;2.52;;;;;;;-5.68;82.14;101271.39;459819;114;922380;-68
2022/03/10 04:14:59;;;;;;;3.28;2.92;;;;;;;-5.70;82.13;101282.11;460381;114;922404;-70
2022/03/10 04:16:02;;;;;;;2.97;2.72;;;;;;;-5.72;82.04;101281.33;460847;114;922697;-69
2022/03/10 04:17:07;;;;;;;2.99;2.51;;;;;;;-5.73;81.91;101278.80;461024;114;922926;-69
2022/03/10 04:18:11;;;;;;;3.87;2.82;;;;;;;-5.76;82.01;101278.97;461202;114;922729;-70
2022/03/10 04:19:15;;;;;;;3.41;2.48;;;;;;;-5.76;82.16;101277.16;461391;114;922641;-69
2022/03/10 04:20:20;;;;;;;3.81;2.76;;;;;;;-5.76;82.02;101271.86;456576;114;922567;-69
2022/03/10 04:21:24;;;;;;;2.94;2.67;;;;;;;-5.76;82.08;101273.66;459236;114;922440;-67
2022/03/10 04:22:27;;;;;;;3.21;2.66;;;;;;;-5.77;82.04;101278.11;464548;114;930324;-69
2022/03/10 04:23:31;;;;;;;3.21;2.70;;;;;;;-5.79;81.93;101276.52;464586;114;922601;-68
2022/03/10 04:24:34;;;;;;;3.10;2.59;;;;;;;-5.80;82.00;101273.00;459245;114;922786;-69
2022/03/10 04:25:37;;;;;;;3.58;2.89;;;;;;;-5.79;82.21;101274.72;463698;114;922522;-67
2022/03/10 04:26:41;;;;;;;3.48;2.65;;;;;;;-5.77;82.10;101275.45;464282;114;922644;-67
2022/03/10 04:27:44;;;;;;;4.12;2.98;;;;;;;-5.75;82.18;101278.02;459172;114;923025;-68
2022/03/10 04:28:47;;;;;;;3.06;2.80;;;;;;;-5.76;82.06;101277.16;464370;114;922860;-69
2022/03/10 04:29:50;;;;;;;2.56;2.36;;;;;;;-5.75;82.16;101276.23;463999;114;922450;-68
2022/03/10 04:30:56;;;;;;;3.13;2.81;;;;;;;-5.71;82.31;101279.53;464301;114;922534;-68
2022/03/10 04:31:59;;;;;;;3.14;2.75;;;;;;;-5.68;82.46;101274.88;462836;114;922596;-71
2022/03/10 04:33:03;;;;;;;4.12;3.74;;;;;;;-5.66;82.29;101269.48;458179;114;930286;-67
2022/03/10 04:34:06;;;;;;;3.42;3.11;;;;;;;-5.62;82.33;101281.61;463776;114;922598;-69
2022/03/10 04:35:12;;;;;;;4.16;3.07;;;;;;;-5.61;82.30;101281.53;463907;114;922560;-68
2022/03/10 04:36:17;;;;;;;3.73;3.02;;;;;;;-5.61;82.72;101280.67;457352;114;922969;-66
2022/03/10 04:37:20;;;;;;;3.85;3.41;;;;;;;-5.61;82.92;101283.33;457770;114;923207;-66
2022/03/10 04:38:24;;;;;;;5.13;2.98;;;;;;;-5.60;82.93;101275.27;456597;114;923102;-67
2022/03/10 04:39:27;;;;;;;3.69;2.99;;;;;;;-5.59;83.01;101274.33;460661;114;930694;-66
2022/03/10 04:40:32;;;;;;;4.48;3.49;;;;;;;-5.56;82.94;101271.47;464274;114;930706;-68
2022/03/10 04:41:35;;;;;;;3.86;3.44;;;;;;;-5.54;82.93;101274.04;462982;114;922844;-68
2022/03/10 04:42:39;;;;;;;3.98;3.27;;;;;;;-5.52;82.80;101283.64;464367;114;923028;-66
2022/03/10 04:43:42;;;;;;;3.38;3.08;;;;;;;-5.51;82.69;101280.00;463256;114;923019;-68
2022/03/10 04:44:46;;;;;;;3.33;3.03;;;;;;;-5.50;82.63;101283.52;456335;114;922543;-67
2022/03/10 04:45:49;;;;;;;5.26;3.24;;;;;;;-5.50;82.68;101276.41;463490;114;930643;-69
2022/03/10 04:46:52;;;;;;;3.21;2.91;;;;;;;-5.48;82.65;101282.48;457729;114;922668;-69
2022/03/10 04:47:56;;;;;;;3.67;3.24;;;;;;;-5.49;82.53;101279.92;464044;114;922504;-68
2022/03/10 04:49:01;;;;;;;4.12;3.17;;;;;;;-5.50;82.50;101284.37;462374;114;922481;-68
2022/03/10 04:50:06;;;;;;;3.28;2.94;;;;;;;-5.47;82.58;101288.66;464228;114;922518;-69
2022/03/10 04:51:09;;;;;;;3.12;2.69;;;;;;;-5.45;82.54;101284.08;461884;114;930632;-67
2022/03/10 04:52:13;;;;;;;2.86;2.66;;;;;;;-5.43;82.54;101292.83;463168;114;922962;-70
2022/03/10 04:53:16;;;;;;;3.24;2.92;;;;;;;-5.42;82.49;101296.34;456522;114;922544;-69
2022/03/10 04:54:19;;;;;;;3.31;2.66;;;;;;;-5.40;82.26;101291.80;456915;114;923414;-67
2022/03/10 04:55:23;;;;;;;3.06;2.74;;;;;;;-5.40;82.35;101297.11;458845;114;922558;-69
2022/03/10 04:56:26;;;;;;;3.22;2.84;;;;;;;-5.40;82.26;101291.80;456408;114;922597;-69
2022/03/10 04:57:30;;;;;;;3.73;2.95;;;;;;;-5.42;82.34;101294.53;460326;114;922731;-67
2022/03/10 04:58:33;;;;;;;3.90;3.41;;;;;;;-5.42;82.29;101293.68;457452;114;922585;-69